Time;durP1;ratioP1;P1;durP2;ratioP2;P2;SDS_P1;SDS_P2;PMS_P1;PMS_P2;Temp;Humidity;BMP_temperature;BMP_pressure;BME280_temperature;BME280_humidity;BME280_pressure;Samples;Min_cycle;Max_cycle;Signal;HPM_P1;HPM_P2
2023/10/07 00:02:18;;;;;;;19.10;10.25;;;10.80;47.50;;;;;;7378083;19;20010;-69
2023/10/07 00:04:51;;;;;;;18.35;9.57;;;10.70;49.00;;;;;;7375952;19;20053;-70
2023/10/07 00:07:22;;;;;;;14.15;9.68;;;10.70;48.00;;;;;;7376217;19;20036;-70
2023/10/07 00:09:52;;;;;;;17.63;9.13;;;10.70;48.20;;;;;;7377323;19;20024;-70
2023/10/07 00:12:25;;;;;;;15.48;9.15;;;10.70;49.40;;;;;;7376185;19;20011;-70
2023/10/07 00:14:55;;;;;;;19.83;9.93;;;10.70;47.90;;;;;;7376762;19;20074;-69
2023/10/07 00:17:25;;;;;;;16.08;9.75;;;10.60;47.20;;;;;;7374140;19;20014;-70
2023/10/07 00:19:58;;;;;;;14.02;9.30;;;10.60;50.10;;;;;;7377852;19;20036;-69
2023/10/07 00:22:33;;;;;;;14.77;9.90;;;10.60;50.00;;;;;;7376320;19;20038;-69
2023/10/07 00:25:12;;;;;;;14.82;9.43;;;10.50;53.30;;;;;;7375381;19;20031;-70
2023/10/07 00:27:42;;;;;;;;;;;10.50;55.70;;;;;;7374404;19;20059;-69
2023/10/07 00:30:16;;;;;;;15.82;8.85;;;10.50;58.00;;;;;;7373401;19;20044;-69
2023/10/07 00:32:47;;;;;;;15.25;9.10;;;10.50;58.20;;;;;;7374756;19;20014;-70
2023/10/07 00:35:20;;;;;;;18.25;9.48;;;10.50;58.20;;;;;;7374394;19;20011;-69
2023/10/07 00:37:50;;;;;;;17.73;10.23;;;10.50;58.30;;;;;;7377235;19;20021;-69
2023/10/07 00:40:31;;;;;;;15.30;8.80;;;10.40;58.50;;;;;;7377056;19;20014;-69
2023/10/07 00:43:07;;;;;;;16.02;9.30;;;10.40;61.80;;;;;;7375201;19;20010;-69
2023/10/07 00:45:37;;;;;;;15.07;9.45;;;10.40;65.80;;;;;;7373730;19;20003;-69
2023/10/07 00:48:11;;;;;;;17.50;9.43;;;10.40;66.60;;;;;;7376495;19;20006;-69
2023/10/07 00:50:45;;;;;;;18.13;10.15;;;10.30;68.30;;;;;;7376960;19;20007;-69
2023/10/07 00:53:24;;;;;;;17.58;10.60;;;10.30;68.60;;;;;;7378405;19;20015;-70
2023/10/07 00:55:55;;;;;;;16.10;9.35;;;10.30;70.80;;;;;;7369099;19;20014;-70
2023/10/07 00:58:27;;;;;;;13.75;9.07;;;10.30;73.90;;;;;;7374136;19;20483;-70
2023/10/07 01:00:57;;;;;;;16.85;9.20;;;10.30;70.30;;;;;;7376164;19;20589;-69
2023/10/07 01:03:47;;;;;;;15.05;8.65;;;10.20;69.00;;;;;;7377855;19;20081;-70
2023/10/07 01:06:31;;;;;;;14.13;8.60;;;10.30;68.30;;;;;;7381293;19;20096;-70
2023/10/07 01:09:07;;;;;;;17.77;8.82;;;10.30;62.60;;;;;;7376853;19;20044;-69
2023/10/07 01:11:40;;;;;;;14.23;9.35;;;10.20;57.80;;;;;;7379259;19;20077;-68
2023/10/07 01:14:12;;;;;;;12.27;8.57;;;10.20;53.30;;;;;;7378433;19;20067;-70
2023/10/07 01:16:45;;;;;;;15.88;9.10;;;10.20;52.20;;;;;;7375691;19;20031;-70
2023/10/07 01:19:28;;;;;;;14.20;8.37;;;10.20;51.80;;;;;;7376159;19;20002;-69
2023/10/07 01:22:09;;;;;;;12.63;7.88;;;10.10;51.00;;;;;;6865408;19;2003967;-68
2023/10/07 01:24:49;;;;;;;12.25;8.20;;;10.10;49.60;;;;;;7374926;19;20043;-68
2023/10/07 01:27:41;;;;;;;14.45;8.50;;;10.10;51.50;;;;;;7373027;19;20090;-68
2023/10/07 01:30:16;;;;;;;15.55;8.68;;;10.10;51.50;;;;;;7376876;19;20010;-69
2023/10/07 01:32:57;;;;;;;14.63;8.25;;;10.20;46.90;;;;;;7373014;19;20014;-69
2023/10/07 01:35:32;;;;;;;13.43;8.10;;;10.10;45.70;;;;;;7372870;19;20014;-69
2023/10/07 01:38:07;;;;;;;15.65;9.35;;;10.10;45.70;;;;;;7375452;19;20010;-69
2023/10/07 01:41:06;;;;;;;15.73;8.90;;;10.10;42.20;;;;;;7373804;19;20003;-69
2023/10/07 01:43:48;;;;;;;13.02;8.43;;;10.10;36.40;;;;;;6865418;19;2004700;-69
2023/10/07 01:46:19;;;;;;;14.35;8.38;;;10.20;31.30;;;;;;7371673;19;20099;-69
2023/10/07 01:48:55;;;;;;;13.77;7.88;;;10.20;27.10;;;;;;7374925;19;20013;-69
2023/10/07 01:51:26;;;;;;;14.90;8.52;;;10.20;24.60;;;;;;7375171;19;20018;-69
2023/10/07 01:54:00;;;;;;;15.07;8.35;;;10.10;25.80;;;;;;7374526;19;20085;-69
2023/10/07 01:56:37;;;;;;;12.45;8.32;;;10.00;26.80;;;;;;7372162;19;20019;-69
2023/10/07 01:59:17;;;;;;;12.57;8.05;;;10.00;27.90;;;;;;7374380;19;20066;-69
2023/10/07 02:01:58;;;;;;;11.80;8.13;;;9.90;30.00;;;;;;7372591;19;20474;-69
2023/10/07 02:04:29;;;;;;;14.18;8.38;;;9.90;32.40;;;;;;7372602;19;20006;-69
2023/10/07 02:06:59;;;;;;;13.32;8.43;;;9.90;32.90;;;;;;7372074;19;20036;-69
2023/10/07 02:09:36;;;;;;;13.95;8.50;;;9.80;34.80;;;;;;7373133;19;20011;-69
2023/10/07 02:12:09;;;;;;;13.32;8.85;;;9.70;39.50;;;;;;7372846;19;20036;-69
2023/10/07 02:14:40;;;;;;;14.70;9.20;;;9.50;47.00;;;;;;7371587;19;20006;-69
2023/10/07 02:17:12;;;;;;;14.32;8.73;;;9.40;52.10;;;;;;7374248;19;20054;-69
2023/10/07 02:19:43;;;;;;;13.13;8.57;;;9.40;61.50;;;;;;7374819;19;20014;-69
2023/10/07 02:22:22;;;;;;;15.65;9.07;;;9.40;67.30;;;;;;7371944;19;20011;-69
2023/10/07 02:25:03;;;;;;;17.10;9.05;;;9.30;68.50;;;;;;7372344;19;20019;-69
2023/10/07 02:27:42;;;;;;;13.15;8.68;;;9.30;75.10;;;;;;7374165;19;20010;-69
2023/10/07 02:30:19;;;;;;;13.85;8.55;;;9.30;77.10;;;;;;7375023;19;20517;-69
2023/10/07 02:32:50;;;;;;;12.68;8.88;;;9.40;77.10;;;;;;7370757;19;20042;-69
2023/10/07 02:35:20;;;;;;;13.35;8.80;;;9.40;74.80;;;;;;7371687;19;20015;-68
2023/10/07 02:37:52;;;;;;;16.00;9.57;;;9.30;76.90;;;;;;7373667;19;20014;-69
2023/10/07 02:40:22;;;;;;;15.30;9.25;;;9.20;75.80;;;;;;7373154;19;20011;-69
2023/10/07 02:42:54;;;;;;;13.15;8.65;;;9.20;76.60;;;;;;7372758;19;20488;-69
2023/10/07 02:45:28;;;;;;;17.10;9.57;;;9.30;79.80;;;;;;7371300;19;20099;-69
2023/10/07 02:48:01;;;;;;;14.82;9.50;;;9.30;83.70;;;;;;7373233;19;20348;-69
2023/10/07 02:50:31;;;;;;;20.30;9.55;;;9.40;89.20;;;;;;7372887;19;20331;-69
2023/10/07 02:53:10;;;;;;;19.08;9.93;;;9.40;86.70;;;;;;7372422;19;20018;-69
2023/10/07 02:55:48;;;;;;;15.20;9.55;;;9.40;87.90;;;;;;7369615;19;20014;-69
2023/10/07 02:58:32;;;;;;;19.63;10.15;;;9.30;89.80;;;;;;7366309;19;20041;-69
2023/10/07 03:01:13;;;;;;;13.95;9.57;;;9.40;92.50;;;;;;7372149;19;20007;-70
2023/10/07 03:03:48;;;;;;;13.63;9.40;;;9.40;91.00;;;;;;7372526;19;20447;-69
2023/10/07 03:06:25;;;;;;;17.27;10.40;;;9.40;88.80;;;;;;7366234;19;20043;-70
2023/10/07 03:09:01;;;;;;;16.15;9.38;;;9.30;87.80;;;;;;7372956;19;20082;-69
2023/10/07 03:11:48;;;;;;;16.15;9.57;;;9.30;88.60;;;;;;7372020;19;20006;-69
2023/10/07 03:14:26;;;;;;;18.80;10.90;;;9.40;86.20;;;;;;7364338;19;20015;-69
2023/10/07 03:17:15;;;;;;;14.07;10.15;;;9.40;82.60;;;;;;7372526;19;20018;-69
2023/10/07 03:19:53;;;;;;;14.00;10.75;;;9.50;76.60;;;;;;7375457;19;20014;-69
2023/10/07 03:22:28;;;;;;;16.50;9.98;;;9.50;69.50;;;;;;7373863;19;20027;-69
2023/10/07 03:25:00;;;;;;;14.95;9.68;;;9.50;65.20;;;;;;7376605;19;20015;-69
2023/10/07 03:27:39;;;;;;;14.50;9.82;;;9.50;60.50;;;;;;7376712;19;20041;-69
2023/10/07 03:30:15;;;;;;;14.48;10.00;;;9.50;55.80;;;;;;7378793;19;20422;-69
2023/10/07 03:33:00;;;;;;;16.52;10.18;;;9.40;52.90;;;;;;7375160;19;20102;-69
2023/10/07 03:35:59;;;;;;;16.10;9.98;;;9.30;57.30;;;;;;6864953;19;2004743;-69
2023/10/07 03:38:29;;;;;;;13.77;9.23;;;9.30;57.70;;;;;;6867368;19;2004796;-69
2023/10/07 03:40:59;;;;;;;19.23;10.05;;;9.20;62.60;;;;;;7378367;19;20017;-70
2023/10/07 03:43:29;;;;;;;16.90;10.00;;;9.20;63.20;;;;;;7378050;19;20498;-69
2023/10/07 03:46:02;;;;;;;15.85;11.02;;;9.20;62.90;;;;;;7377426;19;20391;-69
2023/10/07 03:48:34;;;;;;;12.32;8.75;;;9.10;63.30;;;;;;7378947;19;20735;-68
2023/10/07 03:51:08;;;;;;;14.75;9.18;;;9.10;65.70;;;;;;7378413;19;20375;-69
2023/10/07 03:53:44;;;;;;;13.52;8.85;;;9.10;68.20;;;;;;7377871;19;20006;-69
2023/10/07 03:56:15;;;;;;;14.10;9.00;;;9.10;69.10;;;;;;7376788;19;20093;-69
2023/10/07 03:58:46;;;;;;;15.48;9.43;;;9.20;70.50;;;;;;7379122;19;20078;-69
2023/10/07 04:01:22;;;;;;;14.68;8.93;;;9.10;68.30;;;;;;7377335;19;20013;-69
2023/10/07 04:03:59;;;;;;;16.15;9.70;;;9.10;66.90;;;;;;7377815;19;20014;-69
2023/10/07 04:06:34;;;;;;;13.73;8.75;;;9.10;66.20;;;;;;7376390;19;20482;-69
2023/10/07 04:09:09;;;;;;;14.45;8.82;;;9.10;64.00;;;;;;7378209;19;20021;-69
2023/10/07 04:11:48;;;;;;;14.60;8.68;;;9.10;62.10;;;;;;7377396;19;20059;-69
2023/10/07 04:14:27;;;;;;;12.13;8.13;;;9.00;60.30;;;;;;7372499;19;20013;-69
2023/10/07 04:17:06;;;;;;;14.43;8.60;;;9.00;59.10;;;;;;7376760;19;20027;-69
2023/10/07 04:19:40;;;;;;;12.57;8.70;;;9.10;59.50;;;;;;7377304;19;20030;-69
2023/10/07 04:22:11;;;;;;;14.65;8.93;;;9.10;57.90;;;;;;7377495;19;20379;-69
2023/10/07 04:24:44;;;;;;;14.05;9.40;;;9.00;54.70;;;;;;7377176;19;20002;-69
2023/10/07 04:27:18;;;;;;;15.13;9.43;;;8.90;56.60;;;;;;7377162;19;20538;-69
2023/10/07 04:29:51;;;;;;;12.95;8.50;;;9.00;57.70;;;;;;7370118;19;20070;-69
2023/10/07 04:32:25;;;;;;;12.93;8.00;;;9.10;57.00;;;;;;7376881;19;20888;-69
2023/10/07 04:35:15;;;;;;;11.70;8.13;;;9.10;48.40;;;;;;7375800;19;20079;-69
2023/10/07 04:37:52;;;;;;;17.40;8.35;;;9.10;44.30;;;;;;7376515;19;20388;-69
2023/10/07 04:43:36;;;;;;;15.32;7.78;;;9.10;40.40;;;;;;7376570;19;20032;-69
2023/10/07 04:46:22;;;;;;;11.55;7.38;;;9.10;37.10;;;;;;7373189;19;20507;-69
2023/10/07 04:48:57;;;;;;;14.50;8.88;;;9.10;35.50;;;;;;7375506;19;20080;-70
2023/10/07 04:51:46;;;;;;;12.23;7.80;;;9.00;32.10;;;;;;7376442;19;20024;-69
2023/10/07 04:54:20;;;;;;;15.40;9.15;;;9.00;34.40;;;;;;7376738;19;20037;-69
2023/10/07 04:56:53;;;;;;;;;;;8.90;37.50;;;;;;7372628;19;20014;-69
2023/10/07 04:59:24;;;;;;;15.98;8.50;;;8.90;34.20;;;;;;7376247;19;19922;-69
2023/10/07 05:01:56;;;;;;;15.55;8.43;;;8.90;36.60;;;;;;7374871;19;20015;-68
2023/10/07 05:04:32;;;;;;;14.30;8.73;;;9.00;33.40;;;;;;7374854;19;20017;-70
2023/10/07 05:07:00;;;;;;;11.95;8.00;;;8.90;29.10;;;;;;7373097;19;20068;-69
2023/10/07 05:09:32;;;;;;;12.88;8.27;;;8.90;27.00;;;;;;7374545;19;20039;-69
2023/10/07 05:12:01;;;;;;;14.57;8.20;;;8.90;28.60;;;;;;7374547;19;20014;-69
2023/10/07 05:14:32;;;;;;;13.98;8.20;;;8.90;27.70;;;;;;7375020;19;20601;-69
2023/10/07 05:16:59;;;;;;;13.73;8.07;;;9.00;25.30;;;;;;7373629;19;20112;-69
2023/10/07 05:19:33;;;;;;;11.68;7.53;;;8.90;25.80;;;;;;7374626;19;20034;-69
2023/10/07 05:22:05;;;;;;;12.18;7.75;;;8.90;25.40;;;;;;7374908;19;20017;-69
2023/10/07 05:24:35;;;;;;;12.35;7.80;;;8.90;25.90;;;;;;7374656;19;20014;-69
2023/10/07 05:27:05;;;;;;;12.63;7.28;;;8.90;21.50;;;;;;7373951;19;20440;-69
2023/10/07 05:29:35;;;;;;;10.68;7.32;;;8.90;20.90;;;;;;7374444;19;20018;-69
2023/10/07 05:32:06;;;;;;;12.20;7.30;;;8.80;22.30;;;;;;7375259;19;20049;-69
2023/10/07 05:34:38;;;;;;;11.32;7.47;;;8.90;23.80;;;;;;7373688;19;20010;-69
2023/10/07 05:37:14;;;;;;;13.00;8.27;;;8.90;22.80;;;;;;7373055;19;20018;-69
2023/10/07 05:39:45;;;;;;;11.57;7.75;;;9.00;20.50;;;;;;7372208;19;20463;-69
2023/10/07 05:42:15;;;;;;;13.07;8.13;;;9.00;19.30;;;;;;7371701;19;20115;-69
2023/10/07 05:44:45;;;;;;;14.23;7.45;;;9.00;18.70;;;;;;7374266;19;20010;-69
2023/10/07 05:47:15;;;;;;;12.27;7.63;;;9.00;19.60;;;;;;7374698;19;20468;-69
2023/10/07 05:49:49;;;;;;;13.77;7.90;;;9.00;18.30;;;;;;7374875;19;20007;-69
2023/10/07 05:52:20;;;;;;;12.40;7.78;;;9.10;18.30;;;;;;7372664;19;20010;-69
2023/10/07 05:54:50;;;;;;;14.60;8.05;;;9.10;17.50;;;;;;7372080;19;20819;-68
2023/10/07 05:57:21;;;;;;;10.50;6.85;;;9.20;14.80;;;;;;7372849;19;20106;-69
2023/10/07 05:59:51;;;;;;;12.40;7.60;;;9.30;13.40;;;;;;7373288;19;20499;-68
2023/10/07 06:02:21;;;;;;;11.52;7.25;;;9.30;10.10;;;;;;7374407;19;20534;-70
2023/10/07 06:04:54;;;;;;;14.23;8.02;;;9.40;8.20;;;;;;7372466;19;20336;-69
2023/10/07 06:07:27;;;;;;;16.15;8.32;;;9.50;4.60;;;;;;7372111;19;20014;-69
2023/10/07 06:09:57;;;;;;;13.18;7.00;;;9.70;3.30;;;;;;7373038;19;20058;-70
2023/10/07 06:12:28;;;;;;;12.90;7.05;;;9.80;1.00;;;;;;7373690;19;20090;-69
2023/10/07 06:14:59;;;;;;;13.27;7.20;;;9.90;1.00;;;;;;7372149;19;20468;-69
2023/10/07 06:17:29;;;;;;;11.23;6.90;;;10.00;1.00;;;;;;7372688;19;20018;-69
2023/10/07 06:20:13;;;;;;;12.00;7.68;;;10.10;1.00;;;;;;7372786;19;20362;-69
2023/10/07 06:22:48;;;;;;;12.87;7.43;;;10.20;1.00;;;;;;7372709;19;20010;-70
2023/10/07 06:25:18;;;;;;;11.35;7.03;;;10.20;1.00;;;;;;7366020;19;20022;-69
2023/10/07 06:27:50;;;;;;;11.95;7.07;;;10.30;1.00;;;;;;7373235;19;20017;-70
2023/10/07 06:30:22;;;;;;;12.05;7.35;;;10.40;1.00;;;;;;7373733;19;20556;-68
2023/10/07 06:32:55;;;;;;;11.88;7.88;;;10.40;1.00;;;;;;7370739;19;20014;-68
2023/10/07 06:35:28;;;;;;;13.02;7.55;;;10.50;1.00;;;;;;7370475;19;20011;-68
2023/10/07 06:37:58;;;;;;;12.50;7.47;;;10.60;1.00;;;;;;7372524;19;20019;-68
2023/10/07 06:40:29;;;;;;;13.95;7.10;;;10.50;1.00;;;;;;7370758;19;20034;-68
2023/10/07 06:42:59;;;;;;;13.23;7.57;;;10.60;1.00;;;;;;7371488;19;20010;-69
2023/10/07 06:45:35;;;;;;;10.50;6.85;;;10.80;1.00;;;;;;7370614;19;20014;-69
2023/10/07 06:48:09;;;;;;;11.90;6.32;;;10.80;1.00;;;;;;7372238;19;20018;-69
2023/10/07 06:50:45;;;;;;;12.50;7.17;;;11.00;1.00;;;;;;7371522;19;20015;-69
2023/10/07 06:53:22;;;;;;;10.60;6.13;;;11.30;1.00;;;;;;7374461;19;20647;-68
2023/10/07 06:55:54;;;;;;;17.67;6.85;;;11.50;1.00;;;;;;7375436;19;20022;-69
2023/10/07 06:58:25;;;;;;;10.93;6.00;;;11.50;1.00;;;;;;7378423;19;20010;-69
2023/10/07 07:00:56;;;;;;;9.82;6.18;;;11.70;1.00;;;;;;7377462;19;20532;-69
2023/10/07 07:03:27;;;;;;;11.85;6.88;;;11.90;1.00;;;;;;7376149;19;20082;-69
2023/10/07 07:06:03;;;;;;;10.18;5.95;;;12.00;1.00;;;;;;7376717;19;20026;-69
2023/10/07 07:08:34;;;;;;;10.30;6.18;;;12.10;1.00;;;;;;7379085;19;20018;-69
2023/10/07 07:11:11;;;;;;;13.27;7.03;;;12.10;1.00;;;;;;7378032;19;20017;-68
2023/10/07 07:13:43;;;;;;;11.27;6.38;;;12.20;1.00;;;;;;7378740;19;20006;-68
2023/10/07 07:16:14;;;;;;;11.73;7.30;;;12.30;1.00;;;;;;7377642;19;20043;-68
2023/10/07 07:18:45;;;;;;;14.30;6.97;;;12.80;1.00;;;;;;7375751;19;20040;-68
2023/10/07 07:21:31;;;;;;;9.80;5.97;;;13.00;1.00;;;;;;7379793;19;20015;-69
2023/10/07 07:24:01;;;;;;;13.40;6.22;;;13.20;1.00;;;;;;6868600;19;2004861;-69
2023/10/07 07:26:30;;;;;;;10.82;6.03;;;13.30;1.00;;;;;;7376273;19;20014;-68
2023/10/07 07:29:04;;;;;;;11.60;6.32;;;13.40;1.00;;;;;;7377585;19;20014;-69
2023/10/07 07:31:35;;;;;;;9.90;5.65;;;13.40;1.00;;;;;;7378394;19;20101;-69
2023/10/07 07:34:19;;;;;;;11.77;5.95;;;13.40;1.00;;;;;;7372645;19;20006;-69
2023/10/07 07:36:56;;;;;;;8.70;5.40;;;13.40;1.00;;;;;;7373645;19;20010;-69
2023/10/07 07:39:30;;;;;;;11.13;6.15;;;13.50;1.00;;;;;;7378315;19;20018;-69
2023/10/07 07:42:15;;;;;;;9.82;5.95;;;13.70;1.00;;;;;;7377652;19;20006;-69
2023/10/07 07:44:56;;;;;;;9.85;6.10;;;13.80;1.00;;;;;;7377769;19;20006;-69
2023/10/07 07:47:31;;;;;;;11.90;5.75;;;13.80;1.00;;;;;;7375636;19;20416;-69
2023/10/07 07:50:07;;;;;;;10.82;5.78;;;14.00;1.00;;;;;;7378126;19;20017;-69
2023/10/07 07:52:39;;;;;;;11.20;6.13;;;14.10;1.00;;;;;;7377371;19;20762;-69
2023/10/07 07:55:12;;;;;;;9.05;5.53;;;14.20;1.00;;;;;;7376045;19;20013;-69
2023/10/07 07:57:44;;;;;;;10.10;5.95;;;14.40;1.00;;;;;;7376952;19;20485;-69
2023/10/07 08:00:20;;;;;;;10.82;5.57;;;14.70;1.00;;;;;;7377436;19;20459;-68
2023/10/07 08:02:55;;;;;;;10.35;6.05;;;14.90;1.00;;;;;;7375680;19;20466;-69
2023/10/07 08:05:28;;;;;;;12.40;5.85;;;15.20;1.00;;;;;;7374994;19;20010;-69
2023/10/07 08:08:09;;;;;;;9.35;6.10;;;15.10;1.00;;;;;;7379229;19;20006;-69
2023/10/07 08:10:39;;;;;;;10.98;5.35;;;15.20;1.00;;;;;;7377674;19;20089;-69
2023/10/07 08:13:09;;;;;;;8.35;5.40;;;15.40;1.00;;;;;;7378066;19;19998;-69
2023/10/07 08:15:47;;;;;;;13.23;5.78;;;15.40;1.00;;;;;;7375320;19;20003;-69
2023/10/07 08:18:22;;;;;;;11.25;6.15;;;15.50;1.00;;;;;;7379891;19;20364;-69
2023/10/07 08:20:56;;;;;;;10.65;5.55;;;15.50;1.00;;;;;;7398539;19;20050;-68
2023/10/07 08:23:35;;;;;;;10.32;5.47;;;15.70;1.00;;;;;;7378884;19;20014;-68
2023/10/07 08:26:12;;;;;;;10.00;5.25;;;15.60;1.00;;;;;;7374715;19;20018;-68
2023/10/07 08:28:47;;;;;;;12.48;5.50;;;15.60;1.00;;;;;;7377664;19;20006;-68
2023/10/07 08:31:19;;;;;;;9.73;5.70;;;15.80;1.00;;;;;;7377689;19;20019;-68
2023/10/07 08:33:53;;;;;;;11.13;5.18;;;16.10;1.00;;;;;;7371702;19;20006;-69
2023/10/07 08:36:29;;;;;;;10.93;5.78;;;16.50;1.00;;;;;;7374851;19;20010;-68
2023/10/07 08:39:05;;;;;;;12.18;5.40;;;16.70;1.00;;;;;;7376304;19;20015;-70
2023/10/07 08:41:35;;;;;;;11.63;5.20;;;16.50;1.00;;;;;;7377187;19;20024;-69
2023/10/07 08:44:13;;;;;;;11.07;4.78;;;16.60;1.00;;;;;;7375716;19;20644;-69
2023/10/07 08:46:48;;;;;;;9.90;4.30;;;16.60;1.00;;;;;;7374582;19;20011;-69
2023/10/07 08:49:25;;;;;;;7.25;3.72;;;16.60;1.00;;;;;;7374366;19;20019;-70
2023/10/07 08:51:56;;;;;;;7.95;4.13;;;16.70;1.00;;;;;;7375746;19;20017;-69
2023/10/07 08:54:31;;;;;;;11.77;3.90;;;16.70;1.00;;;;;;7375664;19;20014;-69
2023/10/07 08:57:09;;;;;;;5.45;3.33;;;16.80;1.00;;;;;;7374369;19;20073;-69
2023/10/07 08:59:40;;;;;;;10.30;3.92;;;16.80;1.00;;;;;;7375710;19;20026;-70
2023/10/07 09:02:26;;;;;;;6.93;3.85;;;16.80;1.00;;;;;;7376710;19;20011;-69
2023/10/07 09:04:57;;;;;;;5.40;3.30;;;16.60;1.00;;;;;;7372765;19;20017;-68
2023/10/07 09:07:32;;;;;;;8.60;4.10;;;16.70;1.00;;;;;;7375636;19;20019;-69
2023/10/07 09:10:14;;;;;;;;;;;16.70;1.00;;;;;;7377707;19;20041;-70
2023/10/07 09:12:49;;;;;;;7.82;4.22;;;16.80;1.00;;;;;;7374945;19;19921;-69
2023/10/07 09:15:25;;;;;;;7.43;3.90;;;16.90;1.00;;;;;;7365972;19;20118;-70
2023/10/07 09:18:03;;;;;;;5.38;3.13;;;16.90;1.00;;;;;;7374354;19;20377;-70
2023/10/07 09:20:36;;;;;;;7.00;3.72;;;17.00;1.00;;;;;;7374367;19;20032;-69
2023/10/07 09:23:15;;;;;;;8.02;3.90;;;17.20;1.00;;;;;;7374674;19;20007;-69
2023/10/07 09:25:51;;;;;;;9.30;3.83;;;17.20;1.00;;;;;;7371388;19;20003;-70
2023/10/07 09:28:30;;;;;;;7.72;3.58;;;17.20;1.00;;;;;;7373239;19;20014;-69
2023/10/07 09:31:05;;;;;;;8.00;3.15;;;17.30;1.00;;;;;;7373863;19;20014;-69
2023/10/07 09:33:41;;;;;;;7.63;3.33;;;17.40;1.00;;;;;;7375345;19;20022;-69
2023/10/07 09:36:36;;;;;;;6.75;3.40;;;17.40;1.00;;;;;;7372905;19;20007;-70
2023/10/07 09:42:25;;;;;;;7.63;3.33;;;17.30;1.00;;;;;;6865963;19;2004670;-69
2023/10/07 09:45:00;;;;;;;5.80;2.95;;;17.40;1.00;;;;;;7372636;19;20006;-69
2023/10/07 09:47:28;;;;;;;5.82;3.45;;;17.30;1.00;;;;;;7373985;19;20035;-69
2023/10/07 09:49:59;;;;;;;6.00;3.63;;;17.30;1.00;;;;;;7373330;19;20031;-69
2023/10/07 09:52:32;;;;;;;6.57;3.63;;;17.20;1.00;;;;;;7375431;19;20025;-69
2023/10/07 09:55:40;;;;;;;6.10;3.20;;;17.50;1.00;;;;;;7373012;19;20024;-69
2023/10/07 09:58:36;;;;;;;6.40;3.33;;;17.50;1.00;;;;;;6862806;19;2005063;-70
2023/10/07 10:01:29;;;;;;;8.77;3.17;;;17.80;1.00;;;;;;6865137;19;2004104;-69
2023/10/07 10:04:26;;;;;;;7.90;3.58;;;17.80;1.00;;;;;;6864274;19;2004719;-68
2023/10/07 10:07:11;;;;;;;7.13;3.30;;;17.60;1.00;;;;;;7370285;19;20454;-69
2023/10/07 10:10:00;;;;;;;8.02;3.72;;;17.60;1.00;;;;;;7373512;19;20002;-70
2023/10/07 10:12:49;;;;;;;6.85;3.45;;;17.90;1.00;;;;;;6863778;19;2004853;-69
2023/10/07 10:18:35;;;;;;;7.60;4.30;;;17.90;1.00;;;;;;7375346;19;20003;-69
2023/10/07 10:21:09;;;;;;;5.93;3.40;;;18.20;1.00;;;;;;6864732;19;2005492;-69
2023/10/07 10:23:44;;;;;;;6.22;3.60;;;18.00;1.00;;;;;;7373004;19;20041;-71
2023/10/07 10:26:20;;;;;;;5.30;3.22;;;18.00;1.00;;;;;;7373400;19;20007;-69
2023/10/07 10:29:15;;;;;;;5.32;3.03;;;17.90;1.00;;;;;;7379005;19;20032;-70
2023/10/07 10:31:58;;;;;;;7.85;3.38;;;18.10;1.00;;;;;;7380883;19;20026;-70
2023/10/07 10:34:29;;;;;;;8.52;3.45;;;18.10;1.00;;;;;;6868354;19;2004819;-69
2023/10/07 10:36:59;;;;;;;4.95;3.10;;;18.20;1.00;;;;;;7380003;19;20330;-70
2023/10/07 10:39:31;;;;;;;6.53;3.42;;;18.30;1.00;;;;;;7379761;19;20087;-68
2023/10/07 10:42:13;;;;;;;8.00;3.17;;;18.50;1.00;;;;;;7380456;19;20081;-70
2023/10/07 10:44:46;;;;;;;5.13;3.22;;;18.80;1.00;;;;;;7379452;19;20021;-70
2023/10/07 10:47:21;;;;;;;7.25;3.92;;;18.70;1.00;;;;;;7379864;19;20052;-69
2023/10/07 10:49:54;;;;;;;6.17;3.27;;;18.60;1.00;;;;;;7379452;19;20065;-69
2023/10/07 10:52:26;;;;;;;5.20;3.05;;;18.80;1.00;;;;;;7380495;19;20007;-69
2023/10/07 10:54:57;;;;;;;5.65;3.42;;;18.80;1.00;;;;;;7378803;19;20031;-69
2023/10/07 10:57:26;;;;;;;6.72;3.20;;;18.90;1.00;;;;;;7378051;19;20010;-69
2023/10/07 10:59:58;;;;;;;8.15;3.05;;;19.00;1.00;;;;;;7378121;19;20457;-69
2023/10/07 11:02:31;;;;;;;5.57;3.35;;;18.50;1.00;;;;;;7379759;19;20034;-70
2023/10/07 11:05:02;;;;;;;7.13;4.25;;;18.90;1.00;;;;;;7377943;19;20007;-70
2023/10/07 11:07:34;;;;;;;8.93;4.45;;;18.80;1.00;;;;;;7379383;19;20011;-69
2023/10/07 11:10:04;;;;;;;10.40;3.83;;;19.10;1.00;;;;;;7380469;19;20007;-70
2023/10/07 11:12:36;;;;;;;5.88;3.30;;;19.30;1.00;;;;;;7379597;19;20094;-69
2023/10/07 11:15:13;;;;;;;6.22;3.40;;;19.30;1.00;;;;;;7378132;19;20015;-69
2023/10/07 11:17:56;;;;;;;9.38;4.15;;;19.40;1.00;;;;;;7379100;19;20014;-70
2023/10/07 11:20:27;;;;;;;6.25;3.08;;;19.30;1.00;;;;;;7375885;19;20007;-70
2023/10/07 11:22:59;;;;;;;5.50;2.80;;;19.20;1.00;;;;;;7377381;19;20014;-70
2023/10/07 11:25:30;;;;;;;6.50;2.93;;;19.20;1.00;;;;;;7377110;19;20018;-70
2023/10/07 11:28:05;;;;;;;5.75;3.10;;;19.10;1.00;;;;;;7377231;19;20074;-70
2023/10/07 11:30:44;;;;;;;6.05;2.60;;;18.90;1.00;;;;;;7378007;19;20010;-69
2023/10/07 11:33:19;;;;;;;5.07;2.70;;;18.90;1.00;;;;;;7380007;19;20090;-70
2023/10/07 11:36:02;;;;;;;4.93;3.28;;;18.90;1.00;;;;;;7375107;19;20011;-69
2023/10/07 11:38:33;;;;;;;6.53;2.85;;;19.00;1.00;;;;;;7376894;19;20036;-71
2023/10/07 11:41:06;;;;;;;8.60;3.13;;;19.10;1.00;;;;;;7376377;19;20798;-70
2023/10/07 11:43:47;;;;;;;5.38;2.92;;;19.00;1.00;;;;;;7374933;19;20437;-70
2023/10/07 11:46:20;;;;;;;5.03;2.80;;;19.10;1.00;;;;;;7373540;19;20005;-70
2023/10/07 11:48:53;;;;;;;6.40;2.80;;;19.10;1.00;;;;;;7372673;19;20010;-69
2023/10/07 11:51:23;;;;;;;6.05;3.47;;;19.10;1.00;;;;;;7375314;19;20256;-70
2023/10/07 11:53:55;;;;;;;8.75;2.70;;;19.20;1.00;;;;;;7377551;19;20010;-69
2023/10/07 11:56:25;;;;;;;8.43;2.70;;;19.30;1.00;;;;;;7402673;19;20088;-70
2023/10/07 11:58:55;;;;;;;3.97;2.42;;;19.20;1.00;;;;;;7377246;19;20016;-69
2023/10/07 12:01:27;;;;;;;4.45;2.35;;;19.10;1.00;;;;;;7376837;19;20017;-69
2023/10/07 12:04:00;;;;;;;5.38;3.08;;;19.20;1.00;;;;;;7375849;19;20087;-69
2023/10/07 12:06:29;;;;;;;7.68;3.13;;;19.10;1.00;;;;;;7373656;19;20017;-70
2023/10/07 12:09:06;;;;;;;10.13;2.85;;;19.00;1.00;;;;;;7376212;19;20175;-71
2023/10/07 12:11:36;;;;;;;4.90;2.60;;;18.90;1.00;;;;;;7375565;19;20041;-69
2023/10/07 12:14:06;;;;;;;6.80;2.63;;;19.00;1.00;;;;;;7375123;19;20051;-70
2023/10/07 12:16:36;;;;;;;5.70;2.88;;;19.40;1.00;;;;;;7373568;19;20011;-69
2023/10/07 12:19:08;;;;;;;6.13;2.88;;;19.50;1.00;;;;;;7375245;19;20026;-69
2023/10/07 12:21:40;;;;;;;6.65;3.13;;;19.50;1.00;;;;;;7375142;19;20644;-69
2023/10/07 12:24:10;;;;;;;8.20;2.53;;;19.60;1.00;;;;;;7375117;19;20011;-69
2023/10/07 12:26:41;;;;;;;6.97;3.25;;;19.70;1.00;;;;;;7372946;19;20470;-70
2023/10/07 12:29:11;;;;;;;5.50;3.00;;;19.50;1.00;;;;;;7374604;19;20082;-69
2023/10/07 12:31:43;;;;;;;5.47;2.70;;;19.50;1.00;;;;;;7374784;19;20014;-70
2023/10/07 12:34:16;;;;;;;5.53;2.40;;;19.30;1.00;;;;;;7375614;19;20075;-70
2023/10/07 12:36:46;;;;;;;4.13;2.13;;;19.20;1.00;;;;;;7373599;19;20396;-69
2023/10/07 12:39:16;;;;;;;5.45;2.80;;;19.40;1.00;;;;;;7376127;19;20121;-70
2023/10/07 12:41:47;;;;;;;5.68;2.45;;;19.40;1.00;;;;;;7375263;19;20451;-69
2023/10/07 12:44:17;;;;;;;7.43;2.83;;;19.40;1.00;;;;;;7376261;19;20134;-69
2023/10/07 12:46:47;;;;;;;5.03;2.90;;;19.50;1.00;;;;;;7373085;19;20026;-69
2023/10/07 12:49:22;;;;;;;5.40;2.60;;;19.60;1.00;;;;;;7375052;19;20042;-70
2023/10/07 12:51:52;;;;;;;7.28;3.10;;;19.50;1.00;;;;;;7372872;19;20006;-69
2023/10/07 12:54:22;;;;;;;4.68;2.72;;;19.60;1.00;;;;;;7373151;19;20370;-70
2023/10/07 12:56:52;;;;;;;8.63;2.65;;;19.80;1.00;;;;;;7373498;19;20085;-70
2023/10/07 12:59:23;;;;;;;7.13;2.65;;;19.90;1.00;;;;;;7374346;19;20014;-70
2023/10/07 13:01:56;;;;;;;11.27;2.33;;;19.90;1.00;;;;;;7373235;19;20002;-69
2023/10/07 13:04:34;;;;;;;5.25;2.40;;;19.70;1.00;;;;;;7372691;19;20061;-70
2023/10/07 13:07:10;;;;;;;4.93;2.75;;;19.80;1.00;;;;;;7372728;19;20381;-69
2023/10/07 13:09:43;;;;;;;8.18;2.80;;;19.60;1.00;;;;;;7375778;19;20141;-69
2023/10/07 13:12:17;;;;;;;4.07;2.40;;;19.80;1.00;;;;;;7374879;19;20057;-69
2023/10/07 13:14:47;;;;;;;5.20;2.53;;;20.00;1.00;;;;;;7373923;19;20490;-70
2023/10/07 13:17:17;;;;;;;4.40;2.70;;;20.20;1.00;;;;;;7375902;19;20792;-71
2023/10/07 13:19:53;;;;;;;7.85;2.95;;;20.40;1.00;;;;;;7372769;19;20086;-70
2023/10/07 13:22:23;;;;;;;5.57;2.53;;;20.40;1.00;;;;;;7374643;19;20002;-70
2023/10/07 13:24:53;;;;;;;5.50;2.75;;;20.50;1.00;;;;;;7372894;19;20118;-69
2023/10/07 13:27:24;;;;;;;6.53;2.60;;;20.70;1.00;;;;;;7373331;19;21752;-70
2023/10/07 13:29:54;;;;;;;7.15;3.10;;;20.90;1.00;;;;;;7374343;19;20045;-70
2023/10/07 13:32:26;;;;;;;5.68;2.53;;;20.70;1.00;;;;;;7374901;19;20010;-70
2023/10/07 13:35:00;;;;;;;4.22;2.47;;;20.70;1.00;;;;;;7374114;19;20067;-70
2023/10/07 13:37:30;;;;;;;5.18;2.72;;;20.90;1.00;;;;;;7374771;19;20371;-69